sensor_id;sensor_type;location;lat;lon;timestamp;P1;durP1;ratioP1;P2;durP2;ratioP2
7104;SDS011;3594;42.152;24.714;2023-06-22T00:01:57;14.25;;;7.47;;
7104;SDS011;3594;42.152;24.714;2023-06-22T00:04:23;12.90;;;7.25;;
7104;SDS011;3594;42.152;24.714;2023-06-22T00:06:49;19.52;;;7.55;;
7104;SDS011;3594;42.152;24.714;2023-06-22T00:09:14;13.48;;;7.93;;
7104;SDS011;3594;42.152;24.714;2023-06-22T00:11:40;14.48;;;7.82;;
7104;SDS011;3594;42.152;24.714;2023-06-22T00:14:05;13.52;;;7.97;;
7104;SDS011;3594;42.152;24.714;2023-06-22T00:16:34;15.35;;;8.00;;
7104;SDS011;3594;42.152;24.714;2023-06-22T00:19:00;15.88;;;8.05;;
7104;SDS011;3594;42.152;24.714;2023-06-22T00:21:26;12.35;;;7.00;;
7104;SDS011;3594;42.152;24.714;2023-06-22T00:23:52;15.27;;;8.07;;
7104;SDS011;3594;42.152;24.714;2023-06-22T00:26:17;12.57;;;7.53;;
7104;SDS011;3594;42.152;24.714;2023-06-22T00:28:43;12.75;;;7.25;;
7104;SDS011;3594;42.152;24.714;2023-06-22T00:31:08;11.95;;;7.03;;
7104;SDS011;3594;42.152;24.714;2023-06-22T00:33:33;12.77;;;7.60;;
7104;SDS011;3594;42.152;24.714;2023-06-22T00:35:59;11.63;;;7.05;;
7104;SDS011;3594;42.152;24.714;2023-06-22T00:38:24;11.77;;;8.02;;
7104;SDS011;3594;42.152;24.714;2023-06-22T00:40:50;14.23;;;7.75;;
7104;SDS011;3594;42.152;24.714;2023-06-22T00:43:15;13.77;;;7.47;;
7104;SDS011;3594;42.152;24.714;2023-06-22T00:45:40;11.88;;;6.68;;
7104;SDS011;3594;42.152;24.714;2023-06-22T00:48:06;11.88;;;7.05;;
7104;SDS011;3594;42.152;24.714;2023-06-22T00:50:33;14.32;;;8.45;;
7104;SDS011;3594;42.152;24.714;2023-06-22T00:52:59;12.38;;;7.43;;
7104;SDS011;3594;42.152;24.714;2023-06-22T00:55:29;11.35;;;7.40;;
7104;SDS011;3594;42.152;24.714;2023-06-22T00:57:55;13.82;;;7.38;;
7104;SDS011;3594;42.152;24.714;2023-06-22T01:00:21;15.77;;;7.50;;
7104;SDS011;3594;42.152;24.714;2023-06-22T01:02:49;12.98;;;7.78;;
7104;SDS011;3594;42.152;24.714;2023-06-22T01:05:17;15.95;;;8.52;;
7104;SDS011;3594;42.152;24.714;2023-06-22T01:10:16;18.15;;;9.10;;
7104;SDS011;3594;42.152;24.714;2023-06-22T01:12:51;14.68;;;8.07;;
7104;SDS011;3594;42.152;24.714;2023-06-22T01:15:23;14.45;;;8.27;;
7104;SDS011;3594;42.152;24.714;2023-06-22T01:17:56;13.27;;;8.07;;
7104;SDS011;3594;42.152;24.714;2023-06-22T01:20:22;13.77;;;7.88;;
7104;SDS011;3594;42.152;24.714;2023-06-22T01:23:15;11.70;;;7.05;;
7104;SDS011;3594;42.152;24.714;2023-06-22T01:31:13;13.85;;;7.72;;
7104;SDS011;3594;42.152;24.714;2023-06-22T01:33:43;11.85;;;7.35;;
7104;SDS011;3594;42.152;24.714;2023-06-22T01:36:10;12.13;;;7.50;;
7104;SDS011;3594;42.152;24.714;2023-06-22T01:38:37;11.10;;;7.18;;
7104;SDS011;3594;42.152;24.714;2023-06-22T01:41:04;12.98;;;7.70;;
7104;SDS011;3594;42.152;24.714;2023-06-22T01:43:29;14.60;;;8.60;;
7104;SDS011;3594;42.152;24.714;2023-06-22T01:45:55;14.50;;;8.73;;
7104;SDS011;3594;42.152;24.714;2023-06-22T01:48:22;14.63;;;8.07;;
7104;SDS011;3594;42.152;24.714;2023-06-22T01:50:48;12.95;;;7.35;;
7104;SDS011;3594;42.152;24.714;2023-06-22T01:53:14;11.60;;;6.78;;
7104;SDS011;3594;42.152;24.714;2023-06-22T01:55:40;13.18;;;7.32;;
7104;SDS011;3594;42.152;24.714;2023-06-22T01:58:05;13.00;;;7.70;;
7104;SDS011;3594;42.152;24.714;2023-06-22T02:00:36;12.00;;;7.63;;
7104;SDS011;3594;42.152;24.714;2023-06-22T02:05:50;13.98;;;8.43;;
7104;SDS011;3594;42.152;24.714;2023-06-22T02:08:20;14.95;;;8.00;;
7104;SDS011;3594;42.152;24.714;2023-06-22T02:10:49;16.83;;;8.13;;
7104;SDS011;3594;42.152;24.714;2023-06-22T02:13:17;13.27;;;7.65;;
7104;SDS011;3594;42.152;24.714;2023-06-22T02:15:44;13.60;;;7.55;;
7104;SDS011;3594;42.152;24.714;2023-06-22T02:18:11;13.95;;;7.82;;
7104;SDS011;3594;42.152;24.714;2023-06-22T02:20:37;11.98;;;7.72;;
7104;SDS011;3594;42.152;24.714;2023-06-22T02:23:04;14.23;;;7.93;;
7104;SDS011;3594;42.152;24.714;2023-06-22T02:25:31;14.02;;;8.52;;
7104;SDS011;3594;42.152;24.714;2023-06-22T02:27:57;14.18;;;8.63;;
7104;SDS011;3594;42.152;24.714;2023-06-22T02:30:23;15.32;;;9.05;;
7104;SDS011;3594;42.152;24.714;2023-06-22T02:32:48;13.20;;;8.10;;
7104;SDS011;3594;42.152;24.714;2023-06-22T02:35:13;17.60;;;8.35;;
7104;SDS011;3594;42.152;24.714;2023-06-22T02:37:39;12.82;;;7.97;;
7104;SDS011;3594;42.152;24.714;2023-06-22T02:40:07;14.40;;;8.52;;
7104;SDS011;3594;42.152;24.714;2023-06-22T02:42:36;14.00;;;8.13;;
7104;SDS011;3594;42.152;24.714;2023-06-22T02:45:03;16.15;;;9.32;;
7104;SDS011;3594;42.152;24.714;2023-06-22T02:47:28;12.50;;;8.13;;
7104;SDS011;3594;42.152;24.714;2023-06-22T02:49:54;15.10;;;8.57;;
7104;SDS011;3594;42.152;24.714;2023-06-22T02:52:19;17.48;;;8.52;;
7104;SDS011;3594;42.152;24.714;2023-06-22T02:54:44;13.90;;;8.68;;
7104;SDS011;3594;42.152;24.714;2023-06-22T02:57:12;12.32;;;7.78;;
7104;SDS011;3594;42.152;24.714;2023-06-22T02:59:39;12.80;;;7.75;;
7104;SDS011;3594;42.152;24.714;2023-06-22T03:02:06;12.85;;;7.72;;
7104;SDS011;3594;42.152;24.714;2023-06-22T03:04:32;13.95;;;6.93;;
7104;SDS011;3594;42.152;24.714;2023-06-22T03:06:58;9.85;;;6.35;;
7104;SDS011;3594;42.152;24.714;2023-06-22T03:09:26;11.13;;;6.93;;
7104;SDS011;3594;42.152;24.714;2023-06-22T03:11:53;10.68;;;6.63;;
7104;SDS011;3594;42.152;24.714;2023-06-22T03:14:21;11.48;;;6.55;;
7104;SDS011;3594;42.152;24.714;2023-06-22T03:16:46;12.13;;;7.35;;
7104;SDS011;3594;42.152;24.714;2023-06-22T03:19:12;11.98;;;7.18;;
7104;SDS011;3594;42.152;24.714;2023-06-22T03:21:38;12.52;;;6.75;;
7104;SDS011;3594;42.152;24.714;2023-06-22T03:24:04;11.55;;;6.95;;
7104;SDS011;3594;42.152;24.714;2023-06-22T03:26:30;11.57;;;6.72;;
7104;SDS011;3594;42.152;24.714;2023-06-22T03:28:56;13.80;;;7.25;;
7104;SDS011;3594;42.152;24.714;2023-06-22T03:31:21;11.27;;;6.63;;
7104;SDS011;3594;42.152;24.714;2023-06-22T03:33:47;10.25;;;6.25;;
7104;SDS011;3594;42.152;24.714;2023-06-22T03:36:14;10.35;;;6.32;;
7104;SDS011;3594;42.152;24.714;2023-06-22T03:38:47;12.20;;;6.53;;
7104;SDS011;3594;42.152;24.714;2023-06-22T03:41:14;10.43;;;6.20;;
7104;SDS011;3594;42.152;24.714;2023-06-22T03:43:39;11.38;;;6.38;;
7104;SDS011;3594;42.152;24.714;2023-06-22T03:46:05;10.98;;;6.68;;
7104;SDS011;3594;42.152;24.714;2023-06-22T03:48:31;10.65;;;7.15;;
7104;SDS011;3594;42.152;24.714;2023-06-22T03:50:56;11.23;;;6.57;;
7104;SDS011;3594;42.152;24.714;2023-06-22T03:53:22;12.43;;;7.28;;
7104;SDS011;3594;42.152;24.714;2023-06-22T03:55:48;9.75;;;6.60;;
7104;SDS011;3594;42.152;24.714;2023-06-22T03:58:15;12.48;;;6.28;;
7104;SDS011;3594;42.152;24.714;2023-06-22T04:00:41;12.02;;;6.70;;
7104;SDS011;3594;42.152;24.714;2023-06-22T04:03:07;10.70;;;6.47;;
7104;SDS011;3594;42.152;24.714;2023-06-22T04:05:32;11.07;;;6.63;;
7104;SDS011;3594;42.152;24.714;2023-06-22T04:07:58;11.60;;;7.07;;
7104;SDS011;3594;42.152;24.714;2023-06-22T04:10:24;10.80;;;6.85;;
7104;SDS011;3594;42.152;24.714;2023-06-22T04:12:49;11.00;;;6.65;;
7104;SDS011;3594;42.152;24.714;2023-06-22T04:15:14;9.50;;;6.32;;
7104;SDS011;3594;42.152;24.714;2023-06-22T04:17:40;13.13;;;6.55;;
7104;SDS011;3594;42.152;24.714;2023-06-22T04:20:05;10.48;;;6.72;;
7104;SDS011;3594;42.152;24.714;2023-06-22T04:22:32;10.80;;;6.63;;
7104;SDS011;3594;42.152;24.714;2023-06-22T04:24:57;10.25;;;6.75;;
7104;SDS011;3594;42.152;24.714;2023-06-22T04:27:22;9.75;;;6.18;;
7104;SDS011;3594;42.152;24.714;2023-06-22T04:29:48;11.52;;;6.35;;
7104;SDS011;3594;42.152;24.714;2023-06-22T04:32:16;11.85;;;6.63;;
7104;SDS011;3594;42.152;24.714;2023-06-22T04:34:42;12.73;;;7.80;;
7104;SDS011;3594;42.152;24.714;2023-06-22T04:37:08;10.38;;;7.03;;
7104;SDS011;3594;42.152;24.714;2023-06-22T04:39:33;10.30;;;6.72;;
7104;SDS011;3594;42.152;24.714;2023-06-22T04:41:59;11.52;;;6.63;;
7104;SDS011;3594;42.152;24.714;2023-06-22T04:44:27;11.38;;;7.15;;
7104;SDS011;3594;42.152;24.714;2023-06-22T04:46:53;12.70;;;6.95;;
7104;SDS011;3594;42.152;24.714;2023-06-22T04:49:28;9.43;;;6.43;;
7104;SDS011;3594;42.152;24.714;2023-06-22T04:52:04;12.32;;;6.95;;
7104;SDS011;3594;42.152;24.714;2023-06-22T04:54:31;13.73;;;7.75;;
7104;SDS011;3594;42.152;24.714;2023-06-22T04:57:00;13.15;;;7.20;;
7104;SDS011;3594;42.152;24.714;2023-06-22T04:59:27;10.55;;;6.85;;
7104;SDS011;3594;42.152;24.714;2023-06-22T05:01:58;13.00;;;7.90;;
7104;SDS011;3594;42.152;24.714;2023-06-22T05:04:25;11.68;;;7.40;;
7104;SDS011;3594;42.152;24.714;2023-06-22T05:06:53;13.85;;;8.05;;
7104;SDS011;3594;42.152;24.714;2023-06-22T05:09:19;12.43;;;7.63;;
7104;SDS011;3594;42.152;24.714;2023-06-22T05:11:45;11.57;;;7.30;;
7104;SDS011;3594;42.152;24.714;2023-06-22T05:14:11;12.68;;;7.63;;
7104;SDS011;3594;42.152;24.714;2023-06-22T05:16:37;11.25;;;6.93;;
7104;SDS011;3594;42.152;24.714;2023-06-22T05:19:03;12.10;;;7.38;;
7104;SDS011;3594;42.152;24.714;2023-06-22T05:21:29;11.90;;;7.35;;
7104;SDS011;3594;42.152;24.714;2023-06-22T05:23:55;11.27;;;7.20;;
7104;SDS011;3594;42.152;24.714;2023-06-22T05:26:25;10.75;;;6.32;;
7104;SDS011;3594;42.152;24.714;2023-06-22T05:28:54;8.82;;;5.90;;
7104;SDS011;3594;42.152;24.714;2023-06-22T05:31:20;7.85;;;5.43;;
7104;SDS011;3594;42.152;24.714;2023-06-22T05:33:46;8.73;;;6.03;;
7104;SDS011;3594;42.152;24.714;2023-06-22T05:36:13;9.18;;;6.10;;
7104;SDS011;3594;42.152;24.714;2023-06-22T05:38:38;11.20;;;6.15;;
7104;SDS011;3594;42.152;24.714;2023-06-22T05:41:04;9.02;;;6.30;;
7104;SDS011;3594;42.152;24.714;2023-06-22T05:43:30;8.93;;;5.95;;
7104;SDS011;3594;42.152;24.714;2023-06-22T05:45:55;9.65;;;6.22;;
7104;SDS011;3594;42.152;24.714;2023-06-22T05:48:21;11.35;;;6.03;;
7104;SDS011;3594;42.152;24.714;2023-06-22T05:50:46;10.00;;;6.22;;
7104;SDS011;3594;42.152;24.714;2023-06-22T05:53:12;8.75;;;5.80;;
7104;SDS011;3594;42.152;24.714;2023-06-22T05:55:37;11.15;;;5.97;;
7104;SDS011;3594;42.152;24.714;2023-06-22T05:58:03;8.82;;;6.40;;
7104;SDS011;3594;42.152;24.714;2023-06-22T06:00:28;9.57;;;6.63;;
7104;SDS011;3594;42.152;24.714;2023-06-22T06:02:54;8.30;;;5.97;;
7104;SDS011;3594;42.152;24.714;2023-06-22T06:05:19;10.75;;;6.10;;
7104;SDS011;3594;42.152;24.714;2023-06-22T06:07:45;10.07;;;6.65;;
7104;SDS011;3594;42.152;24.714;2023-06-22T06:10:11;8.68;;;6.15;;
7104;SDS011;3594;42.152;24.714;2023-06-22T06:12:37;8.57;;;6.10;;
7104;SDS011;3594;42.152;24.714;2023-06-22T06:15:02;9.30;;;6.07;;
7104;SDS011;3594;42.152;24.714;2023-06-22T06:17:29;8.10;;;5.82;;
7104;SDS011;3594;42.152;24.714;2023-06-22T06:19:54;8.88;;;5.95;;
7104;SDS011;3594;42.152;24.714;2023-06-22T06:22:19;8.52;;;6.13;;
7104;SDS011;3594;42.152;24.714;2023-06-22T06:24:46;9.80;;;6.28;;
7104;SDS011;3594;42.152;24.714;2023-06-22T06:27:13;9.88;;;6.45;;
7104;SDS011;3594;42.152;24.714;2023-06-22T06:29:38;10.52;;;6.22;;
7104;SDS011;3594;42.152;24.714;2023-06-22T06:32:04;12.60;;;6.65;;
7104;SDS011;3594;42.152;24.714;2023-06-22T06:34:30;9.43;;;6.22;;
7104;SDS011;3594;42.152;24.714;2023-06-22T06:36:55;9.32;;;6.43;;
7104;SDS011;3594;42.152;24.714;2023-06-22T06:39:20;9.18;;;6.47;;
7104;SDS011;3594;42.152;24.714;2023-06-22T06:41:46;9.30;;;6.40;;
7104;SDS011;3594;42.152;24.714;2023-06-22T06:44:11;10.50;;;6.78;;
7104;SDS011;3594;42.152;24.714;2023-06-22T06:46:37;11.88;;;6.00;;
7104;SDS011;3594;42.152;24.714;2023-06-22T06:49:03;12.25;;;6.72;;
7104;SDS011;3594;42.152;24.714;2023-06-22T06:51:28;11.88;;;6.88;;
7104;SDS011;3594;42.152;24.714;2023-06-22T06:53:54;8.82;;;6.43;;
7104;SDS011;3594;42.152;24.714;2023-06-22T06:56:19;10.40;;;6.68;;
7104;SDS011;3594;42.152;24.714;2023-06-22T06:58:45;9.52;;;6.25;;
7104;SDS011;3594;42.152;24.714;2023-06-22T07:01:11;8.98;;;5.75;;
7104;SDS011;3594;42.152;24.714;2023-06-22T07:03:39;8.75;;;6.07;;
7104;SDS011;3594;42.152;24.714;2023-06-22T07:06:05;9.35;;;6.30;;
7104;SDS011;3594;42.152;24.714;2023-06-22T07:08:30;8.73;;;5.80;;
7104;SDS011;3594;42.152;24.714;2023-06-22T07:10:55;9.95;;;5.93;;
7104;SDS011;3594;42.152;24.714;2023-06-22T07:13:21;8.93;;;6.07;;
7104;SDS011;3594;42.152;24.714;2023-06-22T07:15:47;7.97;;;5.38;;
7104;SDS011;3594;42.152;24.714;2023-06-22T07:18:12;8.63;;;5.80;;
7104;SDS011;3594;42.152;24.714;2023-06-22T07:20:37;8.70;;;6.03;;
7104;SDS011;3594;42.152;24.714;2023-06-22T07:23:04;7.90;;;5.32;;
7104;SDS011;3594;42.152;24.714;2023-06-22T07:25:30;10.80;;;6.38;;
7104;SDS011;3594;42.152;24.714;2023-06-22T07:28:06;10.50;;;6.22;;
7104;SDS011;3594;42.152;24.714;2023-06-22T07:30:32;7.97;;;5.07;;
7104;SDS011;3594;42.152;24.714;2023-06-22T07:32:59;9.40;;;5.88;;
7104;SDS011;3594;42.152;24.714;2023-06-22T07:35:28;10.85;;;6.93;;
7104;SDS011;3594;42.152;24.714;2023-06-22T07:37:54;10.45;;;5.80;;
7104;SDS011;3594;42.152;24.714;2023-06-22T07:40:20;7.60;;;5.30;;
7104;SDS011;3594;42.152;24.714;2023-06-22T07:42:45;8.30;;;5.65;;
7104;SDS011;3594;42.152;24.714;2023-06-22T07:45:13;9.30;;;5.93;;
7104;SDS011;3594;42.152;24.714;2023-06-22T07:47:38;12.20;;;7.93;;
7104;SDS011;3594;42.152;24.714;2023-06-22T07:50:04;10.07;;;6.63;;
7104;SDS011;3594;42.152;24.714;2023-06-22T07:52:30;7.80;;;5.30;;
7104;SDS011;3594;42.152;24.714;2023-06-22T07:54:55;8.88;;;6.20;;
7104;SDS011;3594;42.152;24.714;2023-06-22T07:57:21;7.80;;;5.57;;
7104;SDS011;3594;42.152;24.714;2023-06-22T07:59:46;10.57;;;5.88;;
7104;SDS011;3594;42.152;24.714;2023-06-22T08:02:12;14.98;;;7.45;;
7104;SDS011;3594;42.152;24.714;2023-06-22T08:04:38;10.10;;;6.13;;
7104;SDS011;3594;42.152;24.714;2023-06-22T08:07:04;10.48;;;6.63;;
7104;SDS011;3594;42.152;24.714;2023-06-22T08:09:32;8.73;;;6.00;;
7104;SDS011;3594;42.152;24.714;2023-06-22T08:11:58;9.52;;;6.07;;
7104;SDS011;3594;42.152;24.714;2023-06-22T08:14:27;11.02;;;6.20;;
7104;SDS011;3594;42.152;24.714;2023-06-22T08:16:52;8.98;;;5.75;;
7104;SDS011;3594;42.152;24.714;2023-06-22T08:19:18;10.48;;;5.40;;
7104;SDS011;3594;42.152;24.714;2023-06-22T08:21:44;8.77;;;5.95;;
7104;SDS011;3594;42.152;24.714;2023-06-22T08:24:09;9.88;;;6.32;;
7104;SDS011;3594;42.152;24.714;2023-06-22T08:26:35;9.48;;;6.20;;
7104;SDS011;3594;42.152;24.714;2023-06-22T08:29:02;10.02;;;6.60;;
7104;SDS011;3594;42.152;24.714;2023-06-22T08:31:28;10.23;;;6.03;;
7104;SDS011;3594;42.152;24.714;2023-06-22T08:33:54;8.48;;;5.72;;
7104;SDS011;3594;42.152;24.714;2023-06-22T08:36:19;9.90;;;5.90;;
7104;SDS011;3594;42.152;24.714;2023-06-22T08:38:45;8.20;;;5.32;;
7104;SDS011;3594;42.152;24.714;2023-06-22T08:41:13;7.88;;;5.55;;
7104;SDS011;3594;42.152;24.714;2023-06-22T08:43:38;7.75;;;5.13;;
7104;SDS011;3594;42.152;24.714;2023-06-22T08:46:04;9.88;;;5.57;;
7104;SDS011;3594;42.152;24.714;2023-06-22T08:48:29;7.38;;;5.20;;
7104;SDS011;3594;42.152;24.714;2023-06-22T08:50:55;12.98;;;5.55;;
7104;SDS011;3594;42.152;24.714;2023-06-22T08:53:20;10.15;;;4.95;;
7104;SDS011;3594;42.152;24.714;2023-06-22T08:55:45;9.85;;;5.97;;
7104;SDS011;3594;42.152;24.714;2023-06-22T08:58:11;9.23;;;6.13;;
7104;SDS011;3594;42.152;24.714;2023-06-22T09:00:36;10.18;;;6.40;;
7104;SDS011;3594;42.152;24.714;2023-06-22T09:03:02;10.65;;;6.93;;
7104;SDS011;3594;42.152;24.714;2023-06-22T09:05:27;12.00;;;6.82;;
7104;SDS011;3594;42.152;24.714;2023-06-22T09:07:53;10.93;;;6.78;;
7104;SDS011;3594;42.152;24.714;2023-06-22T09:10:23;8.48;;;5.18;;
7104;SDS011;3594;42.152;24.714;2023-06-22T09:12:49;7.75;;;5.15;;
7104;SDS011;3594;42.152;24.714;2023-06-22T09:15:15;9.15;;;5.60;;
7104;SDS011;3594;42.152;24.714;2023-06-22T09:17:40;7.43;;;5.40;;
7104;SDS011;3594;42.152;24.714;2023-06-22T09:20:06;6.72;;;4.80;;
7104;SDS011;3594;42.152;24.714;2023-06-22T09:22:35;9.18;;;5.85;;
7104;SDS011;3594;42.152;24.714;2023-06-22T09:25:00;8.00;;;5.72;;
7104;SDS011;3594;42.152;24.714;2023-06-22T09:27:26;8.13;;;5.20;;
7104;SDS011;3594;42.152;24.714;2023-06-22T09:29:51;9.65;;;4.90;;
7104;SDS011;3594;42.152;24.714;2023-06-22T09:32:17;7.43;;;5.15;;
7104;SDS011;3594;42.152;24.714;2023-06-22T09:34:42;8.43;;;5.15;;
7104;SDS011;3594;42.152;24.714;2023-06-22T09:37:08;7.80;;;5.30;;
7104;SDS011;3594;42.152;24.714;2023-06-22T09:39:33;6.70;;;4.82;;
7104;SDS011;3594;42.152;24.714;2023-06-22T09:41:59;7.85;;;5.50;;
7104;SDS011;3594;42.152;24.714;2023-06-22T09:44:25;8.32;;;5.53;;
7104;SDS011;3594;42.152;24.714;2023-06-22T09:46:51;8.10;;;5.25;;
7104;SDS011;3594;42.152;24.714;2023-06-22T09:49:16;8.77;;;5.45;;
7104;SDS011;3594;42.152;24.714;2023-06-22T09:51:42;10.38;;;5.75;;
7104;SDS011;3594;42.152;24.714;2023-06-22T09:54:07;7.55;;;5.10;;
7104;SDS011;3594;42.152;24.714;2023-06-22T09:56:32;7.05;;;4.88;;
7104;SDS011;3594;42.152;24.714;2023-06-22T09:58:58;7.50;;;4.78;;
7104;SDS011;3594;42.152;24.714;2023-06-22T10:01:23;6.53;;;4.75;;
7104;SDS011;3594;42.152;24.714;2023-06-22T10:03:49;7.97;;;5.25;;
7104;SDS011;3594;42.152;24.714;2023-06-22T10:06:15;7.10;;;4.93;;
7104;SDS011;3594;42.152;24.714;2023-06-22T10:08:40;7.60;;;4.97;;
7104;SDS011;3594;42.152;24.714;2023-06-22T10:11:06;8.10;;;5.13;;
7104;SDS011;3594;42.152;24.714;2023-06-22T10:13:31;7.63;;;4.90;;
7104;SDS011;3594;42.152;24.714;2023-06-22T10:15:57;9.25;;;6.05;;
7104;SDS011;3594;42.152;24.714;2023-06-22T10:18:22;6.80;;;4.88;;
7104;SDS011;3594;42.152;24.714;2023-06-22T10:20:49;16.67;;;6.90;;
7104;SDS011;3594;42.152;24.714;2023-06-22T10:23:18;18.50;;;8.80;;
7104;SDS011;3594;42.152;24.714;2023-06-22T10:25:44;16.00;;;6.85;;
7104;SDS011;3594;42.152;24.714;2023-06-22T10:28:10;8.18;;;5.50;;
7104;SDS011;3594;42.152;24.714;2023-06-22T10:30:35;6.97;;;5.15;;
7104;SDS011;3594;42.152;24.714;2023-06-22T10:33:00;8.65;;;5.40;;
7104;SDS011;3594;42.152;24.714;2023-06-22T10:35:26;8.38;;;5.10;;
7104;SDS011;3594;42.152;24.714;2023-06-22T10:37:52;7.65;;;5.35;;
7104;SDS011;3594;42.152;24.714;2023-06-22T10:40:17;6.50;;;4.85;;
7104;SDS011;3594;42.152;24.714;2023-06-22T10:42:44;7.68;;;5.28;;
7104;SDS011;3594;42.152;24.714;2023-06-22T10:45:09;8.38;;;5.22;;
7104;SDS011;3594;42.152;24.714;2023-06-22T10:47:35;7.18;;;5.22;;
7104;SDS011;3594;42.152;24.714;2023-06-22T10:50:02;8.98;;;5.55;;
7104;SDS011;3594;42.152;24.714;2023-06-22T10:52:27;7.90;;;5.07;;
7104;SDS011;3594;42.152;24.714;2023-06-22T10:54:53;7.55;;;5.28;;
7104;SDS011;3594;42.152;24.714;2023-06-22T10:57:18;10.75;;;5.70;;
7104;SDS011;3594;42.152;24.714;2023-06-22T10:59:44;7.03;;;5.25;;
7104;SDS011;3594;42.152;24.714;2023-06-22T11:02:09;9.88;;;5.00;;
7104;SDS011;3594;42.152;24.714;2023-06-22T11:04:35;7.95;;;5.03;;
7104;SDS011;3594;42.152;24.714;2023-06-22T11:07:00;7.30;;;5.40;;
7104;SDS011;3594;42.152;24.714;2023-06-22T11:09:26;7.80;;;5.18;;
7104;SDS011;3594;42.152;24.714;2023-06-22T11:11:52;6.90;;;4.95;;
7104;SDS011;3594;42.152;24.714;2023-06-22T11:14:20;10.73;;;5.07;;
7104;SDS011;3594;42.152;24.714;2023-06-22T11:16:46;8.73;;;5.35;;
7104;SDS011;3594;42.152;24.714;2023-06-22T11:19:12;7.43;;;5.30;;
7104;SDS011;3594;42.152;24.714;2023-06-22T11:21:37;6.90;;;4.95;;
7104;SDS011;3594;42.152;24.714;2023-06-22T11:24:03;9.32;;;5.55;;
7104;SDS011;3594;42.152;24.714;2023-06-22T11:26:29;7.03;;;5.10;;
7104;SDS011;3594;42.152;24.714;2023-06-22T11:28:55;8.38;;;5.15;;
7104;SDS011;3594;42.152;24.714;2023-06-22T11:31:20;6.78;;;4.95;;
7104;SDS011;3594;42.152;24.714;2023-06-22T11:33:46;12.05;;;5.60;;
7104;SDS011;3594;42.152;24.714;2023-06-22T11:36:12;8.38;;;5.22;;
7104;SDS011;3594;42.152;24.714;2023-06-22T11:38:39;7.10;;;4.53;;
7104;SDS011;3594;42.152;24.714;2023-06-22T11:41:08;7.22;;;4.97;;
7104;SDS011;3594;42.152;24.714;2023-06-22T11:43:35;6.82;;;4.97;;
7104;SDS011;3594;42.152;24.714;2023-06-22T11:46:05;8.13;;;5.45;;
7104;SDS011;3594;42.152;24.714;2023-06-22T11:48:30;7.03;;;5.03;;
7104;SDS011;3594;42.152;24.714;2023-06-22T11:50:56;8.05;;;5.53;;
7104;SDS011;3594;42.152;24.714;2023-06-22T11:53:22;8.05;;;5.05;;
7104;SDS011;3594;42.152;24.714;2023-06-22T11:55:49;7.20;;;4.97;;
7104;SDS011;3594;42.152;24.714;2023-06-22T11:58:15;7.45;;;4.85;;
7104;SDS011;3594;42.152;24.714;2023-06-22T12:00:41;7.93;;;5.15;;
7104;SDS011;3594;42.152;24.714;2023-06-22T12:03:07;11.23;;;5.40;;
7104;SDS011;3594;42.152;24.714;2023-06-22T12:05:33;9.32;;;5.32;;
7104;SDS011;3594;42.152;24.714;2023-06-22T12:07:59;7.80;;;5.22;;
7104;SDS011;3594;42.152;24.714;2023-06-22T12:10:25;7.13;;;4.50;;
7104;SDS011;3594;42.152;24.714;2023-06-22T12:12:51;6.50;;;4.65;;
7104;SDS011;3594;42.152;24.714;2023-06-22T12:15:16;6.72;;;4.75;;
7104;SDS011;3594;42.152;24.714;2023-06-22T12:17:42;7.60;;;5.30;;
7104;SDS011;3594;42.152;24.714;2023-06-22T12:20:08;7.80;;;5.13;;
7104;SDS011;3594;42.152;24.714;2023-06-22T12:22:34;8.18;;;5.25;;
7104;SDS011;3594;42.152;24.714;2023-06-22T12:25:00;8.85;;;5.43;;
7104;SDS011;3594;42.152;24.714;2023-06-22T12:27:26;7.95;;;5.50;;
7104;SDS011;3594;42.152;24.714;2023-06-22T12:29:52;7.40;;;5.07;;
7104;SDS011;3594;42.152;24.714;2023-06-22T12:32:17;8.55;;;5.53;;
7104;SDS011;3594;42.152;24.714;2023-06-22T12:34:43;8.75;;;5.68;;
7104;SDS011;3594;42.152;24.714;2023-06-22T12:37:09;7.75;;;5.13;;
7104;SDS011;3594;42.152;24.714;2023-06-22T12:39:35;7.78;;;5.03;;
7104;SDS011;3594;42.152;24.714;2023-06-22T12:42:00;8.73;;;5.10;;
7104;SDS011;3594;42.152;24.714;2023-06-22T12:44:26;7.93;;;5.05;;
7104;SDS011;3594;42.152;24.714;2023-06-22T12:46:52;8.48;;;5.22;;
7104;SDS011;3594;42.152;24.714;2023-06-22T12:49:17;7.82;;;5.40;;
7104;SDS011;3594;42.152;24.714;2023-06-22T12:51:43;7.72;;;5.25;;
7104;SDS011;3594;42.152;24.714;2023-06-22T12:54:09;7.60;;;5.07;;
7104;SDS011;3594;42.152;24.714;2023-06-22T12:56:36;8.05;;;5.00;;
7104;SDS011;3594;42.152;24.714;2023-06-22T12:59:03;8.95;;;5.82;;
7104;SDS011;3594;42.152;24.714;2023-06-22T13:01:29;9.65;;;5.43;;
7104;SDS011;3594;42.152;24.714;2023-06-22T13:03:56;7.63;;;5.30;;
7104;SDS011;3594;42.152;24.714;2023-06-22T13:06:22;8.85;;;5.85;;
7104;SDS011;3594;42.152;24.714;2023-06-22T13:08:48;7.90;;;5.30;;
7104;SDS011;3594;42.152;24.714;2023-06-22T13:11:14;7.35;;;5.30;;
7104;SDS011;3594;42.152;24.714;2023-06-22T13:13:40;8.10;;;5.25;;
7104;SDS011;3594;42.152;24.714;2023-06-22T13:16:06;8.40;;;5.88;;
7104;SDS011;3594;42.152;24.714;2023-06-22T13:18:33;8.50;;;5.13;;
7104;SDS011;3594;42.152;24.714;2023-06-22T13:21:00;9.25;;;5.78;;
7104;SDS011;3594;42.152;24.714;2023-06-22T13:23:26;8.65;;;5.63;;
7104;SDS011;3594;42.152;24.714;2023-06-22T13:25:52;8.00;;;5.22;;
7104;SDS011;3594;42.152;24.714;2023-06-22T13:28:17;8.45;;;5.50;;
7104;SDS011;3594;42.152;24.714;2023-06-22T13:30:43;8.38;;;5.32;;
7104;SDS011;3594;42.152;24.714;2023-06-22T13:33:11;9.35;;;5.03;;
7104;SDS011;3594;42.152;24.714;2023-06-22T13:35:36;7.63;;;5.28;;
7104;SDS011;3594;42.152;24.714;2023-06-22T13:38:02;7.38;;;5.28;;
7104;SDS011;3594;42.152;24.714;2023-06-22T13:40:28;7.78;;;5.43;;
7104;SDS011;3594;42.152;24.714;2023-06-22T13:42:53;8.20;;;5.63;;
7104;SDS011;3594;42.152;24.714;2023-06-22T13:45:19;8.57;;;5.28;;
7104;SDS011;3594;42.152;24.714;2023-06-22T13:47:45;7.13;;;5.15;;
7104;SDS011;3594;42.152;24.714;2023-06-22T13:50:10;8.38;;;5.43;;
7104;SDS011;3594;42.152;24.714;2023-06-22T13:52:38;8.10;;;5.35;;
7104;SDS011;3594;42.152;24.714;2023-06-22T13:55:03;8.43;;;5.45;;
7104;SDS011;3594;42.152;24.714;2023-06-22T13:57:30;10.02;;;5.47;;
7104;SDS011;3594;42.152;24.714;2023-06-22T13:59:55;10.45;;;6.32;;
7104;SDS011;3594;42.152;24.714;2023-06-22T14:02:20;8.18;;;5.70;;
7104;SDS011;3594;42.152;24.714;2023-06-22T14:04:46;8.75;;;5.68;;
7104;SDS011;3594;42.152;24.714;2023-06-22T14:07:11;9.27;;;5.80;;
7104;SDS011;3594;42.152;24.714;2023-06-22T14:09:37;8.32;;;5.43;;
7104;SDS011;3594;42.152;24.714;2023-06-22T14:12:03;9.70;;;6.18;;
7104;SDS011;3594;42.152;24.714;2023-06-22T14:14:30;7.88;;;5.35;;
7104;SDS011;3594;42.152;24.714;2023-06-22T14:16:56;7.57;;;5.38;;
7104;SDS011;3594;42.152;24.714;2023-06-22T14:19:21;9.13;;;5.25;;
7104;SDS011;3594;42.152;24.714;2023-06-22T14:21:47;8.15;;;5.30;;
7104;SDS011;3594;42.152;24.714;2023-06-22T14:24:12;8.05;;;5.38;;
7104;SDS011;3594;42.152;24.714;2023-06-22T14:26:38;8.32;;;5.57;;
7104;SDS011;3594;42.152;24.714;2023-06-22T14:29:03;7.90;;;5.43;;
7104;SDS011;3594;42.152;24.714;2023-06-22T14:31:29;7.90;;;5.35;;
7104;SDS011;3594;42.152;24.714;2023-06-22T14:33:54;8.30;;;5.25;;
7104;SDS011;3594;42.152;24.714;2023-06-22T14:36:19;8.40;;;5.70;;
7104;SDS011;3594;42.152;24.714;2023-06-22T14:38:45;7.65;;;5.20;;
7104;SDS011;3594;42.152;24.714;2023-06-22T14:41:11;8.02;;;5.20;;
7104;SDS011;3594;42.152;24.714;2023-06-22T14:43:36;8.07;;;5.70;;
7104;SDS011;3594;42.152;24.714;2023-06-22T14:46:02;8.30;;;5.43;;
7104;SDS011;3594;42.152;24.714;2023-06-22T14:48:27;8.80;;;5.78;;
7104;SDS011;3594;42.152;24.714;2023-06-22T14:50:53;7.82;;;5.38;;
7104;SDS011;3594;42.152;24.714;2023-06-22T14:53:19;9.25;;;5.68;;
7104;SDS011;3594;42.152;24.714;2023-06-22T14:55:44;8.15;;;5.38;;
7104;SDS011;3594;42.152;24.714;2023-06-22T14:58:10;8.82;;;5.50;;
7104;SDS011;3594;42.152;24.714;2023-06-22T15:00:36;9.98;;;6.38;;